Terminal Aerodrome Forecast
Issued by NWS

Home | Current Version | Previous Version | Text Only | Print | Product List | Glossary On
Versions: 1 2 3 4 5 6 7 8 9 10 11 12 13 14 15 16 17 18 19 20 21 22 23 24 25 26
000
FTUS46 KMTR 201000 AAB
TAFSFO
TAF AMD
KSFO 201012Z 2010/2112 17005KT P6SM FEW011 SCT025
      TEMPO 2010/2014 BKN018
     FM201400 18006KT P6SM OVC018
      TEMPO 2016/2020 6SM -RA BR
     FM202100 28015KT P6SM SCT025 BKN035
     FM210500 27012KT P6SM BKN050=

USA.gov is the U.S. government's official web portal to all federal, state and local government web resources and services.